Avondale, Arizona
Current Conditions -  °F | °C
As of 2:47 PM on Friday 31 Oct 2014 (Local Time) from KGYR Reporting Station
Scattered Clouds Scattered Clouds  
Wind Chill: 90°   Ceiling: Unl
Heat Index: 90°   Visibility: 10mi
Dew Point: 46°   Wind: 3mph
Humidity: 22%   Direction: NA
Pressure: 29.82"   Gusts: NA
Location:  33.44°N, 112.34°W
Report Text: KGYR 312147Z VRB03KT 10SM SCT200 32/08 A2982
Loading
Personal Weather Stations






























Interactive Weather Map
Tropical Storm Tracking
New forecast layout! Learn more

10-Day Weather Forecast

Advertisements
Track Severe Weather on mobile